sensor_id;sensor_type;location;lat;lon;timestamp;P1;durP1;ratioP1;P2;durP2;ratioP2
60582;SDS011;46415;47.536;19.066;2023-03-03T00:01:14;18.27;;;9.48;;
60582;SDS011;46415;47.536;19.066;2023-03-03T00:04:17;17.90;;;9.48;;
60582;SDS011;46415;47.536;19.066;2023-03-03T00:07:20;21.08;;;10.73;;
60582;SDS011;46415;47.536;19.066;2023-03-03T00:10:24;12.52;;;8.35;;
60582;SDS011;46415;47.536;19.066;2023-03-03T00:13:27;22.73;;;9.70;;
60582;SDS011;46415;47.536;19.066;2023-03-03T00:16:36;18.12;;;9.40;;
60582;SDS011;46415;47.536;19.066;2023-03-03T00:19:39;19.20;;;10.02;;
60582;SDS011;46415;47.536;19.066;2023-03-03T00:22:48;33.47;;;9.65;;
60582;SDS011;46415;47.536;19.066;2023-03-03T00:25:51;17.98;;;9.50;;
60582;SDS011;46415;47.536;19.066;2023-03-03T00:28:55;15.13;;;8.30;;
60582;SDS011;46415;47.536;19.066;2023-03-03T00:32:02;18.30;;;10.35;;
60582;SDS011;46415;47.536;19.066;2023-03-03T00:38:31;16.65;;;8.15;;
60582;SDS011;46415;47.536;19.066;2023-03-03T00:41:37;13.55;;;7.85;;
60582;SDS011;46415;47.536;19.066;2023-03-03T00:44:47;16.42;;;8.25;;
60582;SDS011;46415;47.536;19.066;2023-03-03T00:47:57;14.57;;;8.23;;
60582;SDS011;46415;47.536;19.066;2023-03-03T00:51:31;16.17;;;8.93;;
60582;SDS011;46415;47.536;19.066;2023-03-03T00:54:34;14.85;;;10.05;;
60582;SDS011;46415;47.536;19.066;2023-03-03T00:57:37;18.55;;;9.60;;
60582;SDS011;46415;47.536;19.066;2023-03-03T01:00:41;15.10;;;10.68;;
60582;SDS011;46415;47.536;19.066;2023-03-03T01:03:44;17.00;;;10.15;;
60582;SDS011;46415;47.536;19.066;2023-03-03T01:06:47;16.73;;;10.93;;
60582;SDS011;46415;47.536;19.066;2023-03-03T01:09:50;17.37;;;9.32;;
60582;SDS011;46415;47.536;19.066;2023-03-03T01:12:55;17.10;;;9.63;;
60582;SDS011;46415;47.536;19.066;2023-03-03T01:15:59;16.60;;;9.40;;
60582;SDS011;46415;47.536;19.066;2023-03-03T01:19:03;12.70;;;8.95;;
60582;SDS011;46415;47.536;19.066;2023-03-03T01:22:06;18.02;;;8.60;;
60582;SDS011;46415;47.536;19.066;2023-03-03T01:25:08;18.40;;;9.60;;
60582;SDS011;46415;47.536;19.066;2023-03-03T01:28:12;16.87;;;10.57;;
60582;SDS011;46415;47.536;19.066;2023-03-03T01:31:15;19.10;;;10.60;;
60582;SDS011;46415;47.536;19.066;2023-03-03T01:34:17;18.80;;;10.13;;
60582;SDS011;46415;47.536;19.066;2023-03-03T01:37:20;18.33;;;10.60;;
60582;SDS011;46415;47.536;19.066;2023-03-03T01:40:27;20.62;;;9.52;;
60582;SDS011;46415;47.536;19.066;2023-03-03T01:43:32;15.02;;;9.60;;
60582;SDS011;46415;47.536;19.066;2023-03-03T01:46:50;16.87;;;9.35;;
60582;SDS011;46415;47.536;19.066;2023-03-03T01:49:59;18.27;;;9.23;;
60582;SDS011;46415;47.536;19.066;2023-03-03T01:53:10;15.82;;;9.20;;
60582;SDS011;46415;47.536;19.066;2023-03-03T01:56:17;20.30;;;10.40;;
60582;SDS011;46415;47.536;19.066;2023-03-03T01:59:20;18.00;;;9.85;;
60582;SDS011;46415;47.536;19.066;2023-03-03T02:02:29;23.38;;;9.57;;
60582;SDS011;46415;47.536;19.066;2023-03-03T02:05:33;37.08;;;10.35;;
60582;SDS011;46415;47.536;19.066;2023-03-03T02:12:02;16.75;;;9.48;;
60582;SDS011;46415;47.536;19.066;2023-03-03T02:18:18;14.15;;;9.00;;
60582;SDS011;46415;47.536;19.066;2023-03-03T02:21:22;20.73;;;9.20;;
60582;SDS011;46415;47.536;19.066;2023-03-03T02:24:38;19.37;;;10.75;;
60582;SDS011;46415;47.536;19.066;2023-03-03T02:27:46;27.23;;;10.75;;
60582;SDS011;46415;47.536;19.066;2023-03-03T02:30:49;17.60;;;10.13;;
60582;SDS011;46415;47.536;19.066;2023-03-03T02:33:52;19.08;;;11.35;;
60582;SDS011;46415;47.536;19.066;2023-03-03T02:36:56;17.48;;;10.05;;
60582;SDS011;46415;47.536;19.066;2023-03-03T02:39:58;21.25;;;10.13;;
60582;SDS011;46415;47.536;19.066;2023-03-03T02:43:01;15.68;;;8.90;;
60582;SDS011;46415;47.536;19.066;2023-03-03T02:46:07;19.33;;;10.68;;
60582;SDS011;46415;47.536;19.066;2023-03-03T02:49:11;16.85;;;10.60;;
60582;SDS011;46415;47.536;19.066;2023-03-03T02:52:16;17.42;;;8.88;;
60582;SDS011;46415;47.536;19.066;2023-03-03T02:55:20;19.48;;;8.50;;
60582;SDS011;46415;47.536;19.066;2023-03-03T02:58:23;18.05;;;9.82;;
60582;SDS011;46415;47.536;19.066;2023-03-03T03:01:27;20.60;;;11.15;;
60582;SDS011;46415;47.536;19.066;2023-03-03T03:04:30;20.20;;;9.93;;
60582;SDS011;46415;47.536;19.066;2023-03-03T03:07:33;17.10;;;10.00;;
60582;SDS011;46415;47.536;19.066;2023-03-03T03:10:36;19.45;;;10.50;;
60582;SDS011;46415;47.536;19.066;2023-03-03T03:13:40;19.33;;;9.77;;
60582;SDS011;46415;47.536;19.066;2023-03-03T03:16:42;15.45;;;9.55;;
60582;SDS011;46415;47.536;19.066;2023-03-03T03:19:45;18.98;;;10.10;;
60582;SDS011;46415;47.536;19.066;2023-03-03T03:22:48;19.17;;;9.60;;
60582;SDS011;46415;47.536;19.066;2023-03-03T03:25:51;18.23;;;10.60;;
60582;SDS011;46415;47.536;19.066;2023-03-03T03:28:55;17.15;;;9.35;;
60582;SDS011;46415;47.536;19.066;2023-03-03T03:31:58;15.93;;;10.75;;
60582;SDS011;46415;47.536;19.066;2023-03-03T03:35:01;19.85;;;8.95;;
60582;SDS011;46415;47.536;19.066;2023-03-03T03:38:04;12.73;;;9.10;;
60582;SDS011;46415;47.536;19.066;2023-03-03T03:41:07;19.87;;;9.32;;
60582;SDS011;46415;47.536;19.066;2023-03-03T03:44:10;17.65;;;10.48;;
60582;SDS011;46415;47.536;19.066;2023-03-03T03:47:13;18.27;;;9.32;;
60582;SDS011;46415;47.536;19.066;2023-03-03T03:50:16;18.58;;;9.07;;
60582;SDS011;46415;47.536;19.066;2023-03-03T03:53:19;18.95;;;9.80;;
60582;SDS011;46415;47.536;19.066;2023-03-03T03:56:22;17.08;;;10.23;;
60582;SDS011;46415;47.536;19.066;2023-03-03T03:59:25;15.82;;;8.77;;
60582;SDS011;46415;47.536;19.066;2023-03-03T04:02:28;18.37;;;9.80;;
60582;SDS011;46415;47.536;19.066;2023-03-03T04:05:32;16.02;;;9.43;;
60582;SDS011;46415;47.536;19.066;2023-03-03T04:08:35;16.75;;;9.55;;
60582;SDS011;46415;47.536;19.066;2023-03-03T04:11:37;11.50;;;9.27;;
60582;SDS011;46415;47.536;19.066;2023-03-03T04:14:40;18.00;;;10.45;;
60582;SDS011;46415;47.536;19.066;2023-03-03T04:17:43;22.05;;;10.80;;
60582;SDS011;46415;47.536;19.066;2023-03-03T04:20:46;17.77;;;9.65;;
60582;SDS011;46415;47.536;19.066;2023-03-03T04:23:50;13.45;;;8.38;;
60582;SDS011;46415;47.536;19.066;2023-03-03T04:26:54;19.45;;;10.02;;
60582;SDS011;46415;47.536;19.066;2023-03-03T04:29:57;21.37;;;11.68;;
60582;SDS011;46415;47.536;19.066;2023-03-03T04:33:00;15.48;;;11.00;;
60582;SDS011;46415;47.536;19.066;2023-03-03T04:36:03;19.30;;;9.82;;
60582;SDS011;46415;47.536;19.066;2023-03-03T04:39:07;15.68;;;9.68;;
60582;SDS011;46415;47.536;19.066;2023-03-03T04:42:10;15.20;;;10.23;;
60582;SDS011;46415;47.536;19.066;2023-03-03T04:45:13;19.77;;;10.65;;
60582;SDS011;46415;47.536;19.066;2023-03-03T04:48:16;20.73;;;10.63;;
60582;SDS011;46415;47.536;19.066;2023-03-03T04:51:19;19.00;;;9.55;;
60582;SDS011;46415;47.536;19.066;2023-03-03T04:54:22;17.33;;;10.25;;
60582;SDS011;46415;47.536;19.066;2023-03-03T04:57:24;17.50;;;10.38;;
60582;SDS011;46415;47.536;19.066;2023-03-03T05:00:27;19.35;;;10.10;;
60582;SDS011;46415;47.536;19.066;2023-03-03T05:03:30;19.87;;;11.00;;
60582;SDS011;46415;47.536;19.066;2023-03-03T05:06:33;29.33;;;10.90;;
60582;SDS011;46415;47.536;19.066;2023-03-03T05:09:36;21.27;;;10.20;;
60582;SDS011;46415;47.536;19.066;2023-03-03T05:12:39;18.10;;;11.40;;
60582;SDS011;46415;47.536;19.066;2023-03-03T05:15:42;20.10;;;10.15;;
60582;SDS011;46415;47.536;19.066;2023-03-03T05:18:44;16.62;;;9.82;;
60582;SDS011;46415;47.536;19.066;2023-03-03T05:21:47;23.67;;;11.00;;
60582;SDS011;46415;47.536;19.066;2023-03-03T05:24:50;16.83;;;9.77;;
60582;SDS011;46415;47.536;19.066;2023-03-03T05:27:52;18.33;;;10.35;;
60582;SDS011;46415;47.536;19.066;2023-03-03T05:30:56;21.10;;;11.68;;
60582;SDS011;46415;47.536;19.066;2023-03-03T05:33:59;18.00;;;10.50;;
60582;SDS011;46415;47.536;19.066;2023-03-03T05:37:02;22.62;;;11.23;;
60582;SDS011;46415;47.536;19.066;2023-03-03T05:40:05;18.02;;;9.45;;
60582;SDS011;46415;47.536;19.066;2023-03-03T05:43:09;26.12;;;11.27;;
60582;SDS011;46415;47.536;19.066;2023-03-03T05:46:11;17.80;;;9.82;;
60582;SDS011;46415;47.536;19.066;2023-03-03T05:49:15;16.30;;;9.02;;
60582;SDS011;46415;47.536;19.066;2023-03-03T05:52:18;17.42;;;10.05;;
60582;SDS011;46415;47.536;19.066;2023-03-03T05:55:21;16.73;;;9.80;;
60582;SDS011;46415;47.536;19.066;2023-03-03T05:58:24;17.90;;;10.07;;
60582;SDS011;46415;47.536;19.066;2023-03-03T06:01:27;18.37;;;9.85;;
60582;SDS011;46415;47.536;19.066;2023-03-03T06:04:31;15.68;;;9.20;;
60582;SDS011;46415;47.536;19.066;2023-03-03T06:07:34;23.60;;;9.32;;
60582;SDS011;46415;47.536;19.066;2023-03-03T06:10:37;15.65;;;8.60;;
60582;SDS011;46415;47.536;19.066;2023-03-03T06:13:40;22.67;;;10.02;;
60582;SDS011;46415;47.536;19.066;2023-03-03T06:16:44;13.00;;;8.95;;
60582;SDS011;46415;47.536;19.066;2023-03-03T06:19:46;15.10;;;9.65;;
60582;SDS011;46415;47.536;19.066;2023-03-03T06:22:50;19.45;;;9.35;;
60582;SDS011;46415;47.536;19.066;2023-03-03T06:25:52;33.45;;;10.18;;
60582;SDS011;46415;47.536;19.066;2023-03-03T06:28:55;22.45;;;9.90;;
60582;SDS011;46415;47.536;19.066;2023-03-03T06:31:58;21.92;;;10.40;;
60582;SDS011;46415;47.536;19.066;2023-03-03T06:35:04;16.60;;;9.98;;
60582;SDS011;46415;47.536;19.066;2023-03-03T06:38:07;15.93;;;10.15;;
60582;SDS011;46415;47.536;19.066;2023-03-03T06:41:10;20.30;;;11.12;;
60582;SDS011;46415;47.536;19.066;2023-03-03T06:44:13;19.65;;;11.15;;
60582;SDS011;46415;47.536;19.066;2023-03-03T06:47:16;17.55;;;9.80;;
60582;SDS011;46415;47.536;19.066;2023-03-03T06:50:19;18.55;;;9.80;;
60582;SDS011;46415;47.536;19.066;2023-03-03T06:53:22;18.92;;;10.02;;
60582;SDS011;46415;47.536;19.066;2023-03-03T06:56:25;18.02;;;10.40;;
60582;SDS011;46415;47.536;19.066;2023-03-03T06:59:29;22.13;;;12.07;;
60582;SDS011;46415;47.536;19.066;2023-03-03T07:02:31;17.45;;;10.95;;
60582;SDS011;46415;47.536;19.066;2023-03-03T07:05:34;17.83;;;10.48;;
60582;SDS011;46415;47.536;19.066;2023-03-03T07:08:37;20.48;;;11.52;;
60582;SDS011;46415;47.536;19.066;2023-03-03T07:11:41;18.60;;;10.88;;
60582;SDS011;46415;47.536;19.066;2023-03-03T07:14:49;17.17;;;10.43;;
60582;SDS011;46415;47.536;19.066;2023-03-03T07:17:57;21.10;;;11.27;;
60582;SDS011;46415;47.536;19.066;2023-03-03T07:21:20;18.87;;;11.75;;
60582;SDS011;46415;47.536;19.066;2023-03-03T07:24:44;26.17;;;12.27;;
60582;SDS011;46415;47.536;19.066;2023-03-03T07:27:53;18.48;;;10.55;;
60582;SDS011;46415;47.536;19.066;2023-03-03T07:31:00;25.45;;;11.93;;
60582;SDS011;46415;47.536;19.066;2023-03-03T07:34:13;17.58;;;10.23;;
60582;SDS011;46415;47.536;19.066;2023-03-03T07:37:34;23.30;;;11.43;;
60582;SDS011;46415;47.536;19.066;2023-03-03T07:40:41;16.20;;;11.05;;
60582;SDS011;46415;47.536;19.066;2023-03-03T07:43:51;20.00;;;11.23;;
60582;SDS011;46415;47.536;19.066;2023-03-03T07:46:57;21.60;;;11.67;;
60582;SDS011;46415;47.536;19.066;2023-03-03T07:50:23;26.60;;;12.45;;
60582;SDS011;46415;47.536;19.066;2023-03-03T07:53:25;21.17;;;11.68;;
60582;SDS011;46415;47.536;19.066;2023-03-03T07:56:34;21.00;;;11.93;;
60582;SDS011;46415;47.536;19.066;2023-03-03T07:59:37;21.58;;;12.80;;
60582;SDS011;46415;47.536;19.066;2023-03-03T08:02:53;23.77;;;11.48;;
60582;SDS011;46415;47.536;19.066;2023-03-03T08:05:59;20.70;;;13.02;;
60582;SDS011;46415;47.536;19.066;2023-03-03T08:09:29;21.48;;;13.30;;
60582;SDS011;46415;47.536;19.066;2023-03-03T08:12:34;23.63;;;13.20;;
60582;SDS011;46415;47.536;19.066;2023-03-03T08:15:44;20.95;;;13.10;;
60582;SDS011;46415;47.536;19.066;2023-03-03T08:18:49;32.35;;;15.23;;
60582;SDS011;46415;47.536;19.066;2023-03-03T08:22:14;22.62;;;14.70;;
60582;SDS011;46415;47.536;19.066;2023-03-03T08:28:35;22.95;;;14.05;;
60582;SDS011;46415;47.536;19.066;2023-03-03T08:31:38;22.60;;;13.38;;
60582;SDS011;46415;47.536;19.066;2023-03-03T08:34:43;24.23;;;14.23;;
60582;SDS011;46415;47.536;19.066;2023-03-03T08:37:46;28.73;;;15.38;;
60582;SDS011;46415;47.536;19.066;2023-03-03T08:40:48;23.12;;;15.95;;
60582;SDS011;46415;47.536;19.066;2023-03-03T08:43:51;26.55;;;14.82;;
60582;SDS011;46415;47.536;19.066;2023-03-03T08:46:54;33.08;;;16.95;;
60582;SDS011;46415;47.536;19.066;2023-03-03T08:49:57;27.37;;;15.85;;
60582;SDS011;46415;47.536;19.066;2023-03-03T08:52:59;34.60;;;19.02;;
60582;SDS011;46415;47.536;19.066;2023-03-03T08:56:05;34.97;;;17.55;;
60582;SDS011;46415;47.536;19.066;2023-03-03T08:59:08;33.65;;;18.17;;
60582;SDS011;46415;47.536;19.066;2023-03-03T09:02:10;28.05;;;16.92;;
60582;SDS011;46415;47.536;19.066;2023-03-03T09:05:13;29.48;;;17.98;;
60582;SDS011;46415;47.536;19.066;2023-03-03T09:08:16;30.80;;;18.87;;
60582;SDS011;46415;47.536;19.066;2023-03-03T09:11:28;38.20;;;16.92;;
60582;SDS011;46415;47.536;19.066;2023-03-03T09:14:32;28.70;;;17.60;;
60582;SDS011;46415;47.536;19.066;2023-03-03T09:17:35;33.50;;;18.87;;
60582;SDS011;46415;47.536;19.066;2023-03-03T09:20:43;32.60;;;19.02;;
60582;SDS011;46415;47.536;19.066;2023-03-03T09:23:53;33.45;;;18.12;;
60582;SDS011;46415;47.536;19.066;2023-03-03T09:26:57;30.45;;;18.15;;
60582;SDS011;46415;47.536;19.066;2023-03-03T09:30:02;28.52;;;18.55;;
60582;SDS011;46415;47.536;19.066;2023-03-03T09:33:45;33.40;;;17.45;;
60582;SDS011;46415;47.536;19.066;2023-03-03T09:36:52;27.23;;;17.15;;
60582;SDS011;46415;47.536;19.066;2023-03-03T09:39:56;27.95;;;14.80;;
60582;SDS011;46415;47.536;19.066;2023-03-03T09:43:11;23.92;;;14.15;;
60582;SDS011;46415;47.536;19.066;2023-03-03T09:56:41;19.73;;;8.38;;
60582;SDS011;46415;47.536;19.066;2023-03-03T10:13:39;14.05;;;8.73;;
60582;SDS011;46415;47.536;19.066;2023-03-03T10:17:25;13.20;;;7.40;;
60582;SDS011;46415;47.536;19.066;2023-03-03T10:21:10;16.80;;;9.43;;
60582;SDS011;46415;47.536;19.066;2023-03-03T10:27:35;13.73;;;7.80;;
60582;SDS011;46415;47.536;19.066;2023-03-03T10:44:53;12.23;;;7.90;;
60582;SDS011;46415;47.536;19.066;2023-03-03T10:48:02;15.75;;;9.10;;
60582;SDS011;46415;47.536;19.066;2023-03-03T10:57:54;13.25;;;8.63;;
60582;SDS011;46415;47.536;19.066;2023-03-03T11:04:45;11.57;;;8.05;;
60582;SDS011;46415;47.536;19.066;2023-03-03T11:07:52;11.68;;;8.13;;
60582;SDS011;46415;47.536;19.066;2023-03-03T11:14:12;10.80;;;7.57;;
60582;SDS011;46415;47.536;19.066;2023-03-03T11:40:50;12.85;;;8.55;;
60582;SDS011;46415;47.536;19.066;2023-03-03T11:44:19;10.57;;;7.40;;
60582;SDS011;46415;47.536;19.066;2023-03-03T11:47:39;11.40;;;6.82;;
60582;SDS011;46415;47.536;19.066;2023-03-03T11:51:22;9.10;;;7.20;;
60582;SDS011;46415;47.536;19.066;2023-03-03T11:54:26;8.68;;;7.12;;
60582;SDS011;46415;47.536;19.066;2023-03-03T11:57:44;8.95;;;6.07;;
60582;SDS011;46415;47.536;19.066;2023-03-03T12:04:39;8.32;;;6.55;;
60582;SDS011;46415;47.536;19.066;2023-03-03T12:11:48;8.68;;;5.85;;
60582;SDS011;46415;47.536;19.066;2023-03-03T12:21:30;15.52;;;10.30;;
60582;SDS011;46415;47.536;19.066;2023-03-03T12:28:16;11.50;;;7.72;;
60582;SDS011;46415;47.536;19.066;2023-03-03T12:31:43;9.07;;;7.00;;
60582;SDS011;46415;47.536;19.066;2023-03-03T12:35:08;10.23;;;7.37;;
60582;SDS011;46415;47.536;19.066;2023-03-03T12:44:39;10.57;;;8.00;;
60582;SDS011;46415;47.536;19.066;2023-03-03T12:54:55;10.02;;;7.53;;
60582;SDS011;46415;47.536;19.066;2023-03-03T12:58:18;10.20;;;6.93;;
60582;SDS011;46415;47.536;19.066;2023-03-03T13:22:21;9.55;;;6.78;;
60582;SDS011;46415;47.536;19.066;2023-03-03T13:25:52;9.45;;;6.53;;
60582;SDS011;46415;47.536;19.066;2023-03-03T13:39:16;8.75;;;6.55;;
60582;SDS011;46415;47.536;19.066;2023-03-03T13:42:44;7.75;;;6.50;;
60582;SDS011;46415;47.536;19.066;2023-03-03T13:52:31;6.50;;;5.85;;
60582;SDS011;46415;47.536;19.066;2023-03-03T13:55:49;10.65;;;7.95;;
60582;SDS011;46415;47.536;19.066;2023-03-03T14:02:45;13.85;;;9.85;;
60582;SDS011;46415;47.536;19.066;2023-03-03T14:06:02;12.82;;;10.30;;
60582;SDS011;46415;47.536;19.066;2023-03-03T14:09:19;14.02;;;10.45;;
60582;SDS011;46415;47.536;19.066;2023-03-03T14:19:51;14.65;;;10.48;;
60582;SDS011;46415;47.536;19.066;2023-03-03T14:23:22;13.55;;;10.07;;
60582;SDS011;46415;47.536;19.066;2023-03-03T14:26:30;14.15;;;10.27;;
60582;SDS011;46415;47.536;19.066;2023-03-03T14:29:33;12.75;;;9.75;;
60582;SDS011;46415;47.536;19.066;2023-03-03T14:32:37;12.52;;;10.20;;
60582;SDS011;46415;47.536;19.066;2023-03-03T14:36:05;13.57;;;9.90;;
60582;SDS011;46415;47.536;19.066;2023-03-03T14:42:59;15.25;;;10.85;;
60582;SDS011;46415;47.536;19.066;2023-03-03T14:49:33;14.55;;;11.15;;
60582;SDS011;46415;47.536;19.066;2023-03-03T14:52:39;17.30;;;11.80;;
60582;SDS011;46415;47.536;19.066;2023-03-03T14:55:43;15.75;;;11.77;;
60582;SDS011;46415;47.536;19.066;2023-03-03T14:58:48;14.57;;;10.48;;
60582;SDS011;46415;47.536;19.066;2023-03-03T15:05:26;17.70;;;12.60;;
60582;SDS011;46415;47.536;19.066;2023-03-03T15:08:31;15.40;;;11.23;;
60582;SDS011;46415;47.536;19.066;2023-03-03T15:11:36;17.30;;;11.63;;
60582;SDS011;46415;47.536;19.066;2023-03-03T15:14:42;16.70;;;11.55;;
60582;SDS011;46415;47.536;19.066;2023-03-03T15:17:57;16.83;;;12.37;;
60582;SDS011;46415;47.536;19.066;2023-03-03T15:21:07;16.60;;;12.37;;
60582;SDS011;46415;47.536;19.066;2023-03-03T15:24:19;16.33;;;11.93;;
60582;SDS011;46415;47.536;19.066;2023-03-03T15:27:41;15.43;;;11.77;;
60582;SDS011;46415;47.536;19.066;2023-03-03T15:37:48;14.25;;;10.63;;
60582;SDS011;46415;47.536;19.066;2023-03-03T15:47:23;14.15;;;10.55;;
60582;SDS011;46415;47.536;19.066;2023-03-03T15:51:02;13.77;;;10.80;;
60582;SDS011;46415;47.536;19.066;2023-03-03T15:54:27;15.68;;;11.05;;
60582;SDS011;46415;47.536;19.066;2023-03-03T16:04:51;15.55;;;10.02;;
60582;SDS011;46415;47.536;19.066;2023-03-03T16:08:08;13.38;;;11.15;;
60582;SDS011;46415;47.536;19.066;2023-03-03T16:11:32;16.48;;;12.05;;
60582;SDS011;46415;47.536;19.066;2023-03-03T16:28:09;19.70;;;11.60;;
60582;SDS011;46415;47.536;19.066;2023-03-03T16:31:20;16.23;;;10.43;;
60582;SDS011;46415;47.536;19.066;2023-03-03T16:41:11;18.23;;;9.30;;
60582;SDS011;46415;47.536;19.066;2023-03-03T16:51:08;19.17;;;10.68;;
60582;SDS011;46415;47.536;19.066;2023-03-03T17:04:57;17.02;;;9.57;;
60582;SDS011;46415;47.536;19.066;2023-03-03T17:25:45;16.42;;;9.20;;
60582;SDS011;46415;47.536;19.066;2023-03-03T17:35:51;19.27;;;9.57;;
60582;SDS011;46415;47.536;19.066;2023-03-03T17:45:53;15.32;;;8.90;;
60582;SDS011;46415;47.536;19.066;2023-03-03T17:52:30;17.50;;;9.40;;
60582;SDS011;46415;47.536;19.066;2023-03-03T18:02:55;23.48;;;9.43;;
60582;SDS011;46415;47.536;19.066;2023-03-03T18:16:38;22.83;;;10.88;;
60582;SDS011;46415;47.536;19.066;2023-03-03T18:23:40;22.13;;;11.43;;
60582;SDS011;46415;47.536;19.066;2023-03-03T18:26:44;19.02;;;9.70;;
60582;SDS011;46415;47.536;19.066;2023-03-03T18:40:33;21.67;;;11.63;;
60582;SDS011;46415;47.536;19.066;2023-03-03T18:46:45;23.60;;;11.93;;
60582;SDS011;46415;47.536;19.066;2023-03-03T18:49:51;23.83;;;11.65;;
60582;SDS011;46415;47.536;19.066;2023-03-03T18:53:06;21.77;;;12.00;;
60582;SDS011;46415;47.536;19.066;2023-03-03T18:56:11;23.42;;;12.13;;
60582;SDS011;46415;47.536;19.066;2023-03-03T18:59:47;24.15;;;12.32;;
60582;SDS011;46415;47.536;19.066;2023-03-03T19:02:57;24.75;;;11.73;;
60582;SDS011;46415;47.536;19.066;2023-03-03T19:06:02;24.77;;;12.63;;
60582;SDS011;46415;47.536;19.066;2023-03-03T19:09:10;22.58;;;12.57;;
60582;SDS011;46415;47.536;19.066;2023-03-03T19:12:24;19.62;;;11.73;;
60582;SDS011;46415;47.536;19.066;2023-03-03T19:15:55;19.20;;;10.48;;
60582;SDS011;46415;47.536;19.066;2023-03-03T19:19:01;21.65;;;10.90;;
60582;SDS011;46415;47.536;19.066;2023-03-03T19:25:30;23.83;;;10.90;;
60582;SDS011;46415;47.536;19.066;2023-03-03T19:28:37;24.27;;;10.68;;
60582;SDS011;46415;47.536;19.066;2023-03-03T19:45:25;20.15;;;11.40;;
60582;SDS011;46415;47.536;19.066;2023-03-03T19:48:32;27.15;;;11.73;;
60582;SDS011;46415;47.536;19.066;2023-03-03T19:51:42;19.67;;;10.80;;
60582;SDS011;46415;47.536;19.066;2023-03-03T20:08:33;23.10;;;10.60;;
60582;SDS011;46415;47.536;19.066;2023-03-03T20:12:28;21.50;;;10.85;;
60582;SDS011;46415;47.536;19.066;2023-03-03T20:15:43;21.33;;;10.05;;
60582;SDS011;46415;47.536;19.066;2023-03-03T20:22:22;21.35;;;9.18;;
60582;SDS011;46415;47.536;19.066;2023-03-03T20:25:47;21.17;;;9.65;;
60582;SDS011;46415;47.536;19.066;2023-03-03T20:29:19;22.45;;;10.13;;
60582;SDS011;46415;47.536;19.066;2023-03-03T20:32:29;19.12;;;8.80;;
60582;SDS011;46415;47.536;19.066;2023-03-03T20:35:41;20.05;;;9.82;;
60582;SDS011;46415;47.536;19.066;2023-03-03T20:38:55;20.77;;;9.70;;
60582;SDS011;46415;47.536;19.066;2023-03-03T20:42:08;15.57;;;9.60;;
60582;SDS011;46415;47.536;19.066;2023-03-03T20:51:57;11.98;;;8.35;;
60582;SDS011;46415;47.536;19.066;2023-03-03T21:14:33;13.80;;;7.65;;
60582;SDS011;46415;47.536;19.066;2023-03-03T21:17:37;17.15;;;8.18;;
60582;SDS011;46415;47.536;19.066;2023-03-03T21:20:40;15.70;;;7.90;;
60582;SDS011;46415;47.536;19.066;2023-03-03T21:23:43;17.48;;;8.73;;
60582;SDS011;46415;47.536;19.066;2023-03-03T21:26:55;16.95;;;8.45;;
60582;SDS011;46415;47.536;19.066;2023-03-03T21:30:10;16.02;;;8.27;;
60582;SDS011;46415;47.536;19.066;2023-03-03T21:33:36;16.50;;;8.75;;
60582;SDS011;46415;47.536;19.066;2023-03-03T21:36:57;14.05;;;7.72;;
60582;SDS011;46415;47.536;19.066;2023-03-03T21:40:15;13.90;;;7.07;;
60582;SDS011;46415;47.536;19.066;2023-03-03T21:43:31;12.65;;;6.62;;
60582;SDS011;46415;47.536;19.066;2023-03-03T21:46:38;18.30;;;8.52;;
60582;SDS011;46415;47.536;19.066;2023-03-03T21:49:41;19.90;;;9.88;;
60582;SDS011;46415;47.536;19.066;2023-03-03T21:52:45;17.35;;;8.52;;
60582;SDS011;46415;47.536;19.066;2023-03-03T21:55:48;21.10;;;8.48;;
60582;SDS011;46415;47.536;19.066;2023-03-03T21:58:51;14.65;;;8.80;;
60582;SDS011;46415;47.536;19.066;2023-03-03T22:01:54;22.33;;;9.57;;
60582;SDS011;46415;47.536;19.066;2023-03-03T22:04:57;17.20;;;8.70;;
60582;SDS011;46415;47.536;19.066;2023-03-03T22:08:00;16.17;;;8.60;;
60582;SDS011;46415;47.536;19.066;2023-03-03T22:11:03;13.85;;;8.07;;
60582;SDS011;46415;47.536;19.066;2023-03-03T22:14:06;14.10;;;8.18;;
60582;SDS011;46415;47.536;19.066;2023-03-03T22:17:09;19.45;;;8.65;;
60582;SDS011;46415;47.536;19.066;2023-03-03T22:20:12;14.77;;;7.78;;
60582;SDS011;46415;47.536;19.066;2023-03-03T22:23:16;16.83;;;9.02;;
60582;SDS011;46415;47.536;19.066;2023-03-03T22:26:20;17.35;;;8.73;;
60582;SDS011;46415;47.536;19.066;2023-03-03T22:29:23;17.20;;;8.48;;
60582;SDS011;46415;47.536;19.066;2023-03-03T22:32:26;16.50;;;9.15;;
60582;SDS011;46415;47.536;19.066;2023-03-03T22:35:29;16.00;;;8.35;;
60582;SDS011;46415;47.536;19.066;2023-03-03T22:38:32;14.05;;;7.55;;
60582;SDS011;46415;47.536;19.066;2023-03-03T22:41:35;16.33;;;7.50;;
60582;SDS011;46415;47.536;19.066;2023-03-03T22:44:38;14.68;;;7.18;;
60582;SDS011;46415;47.536;19.066;2023-03-03T22:47:41;12.88;;;8.80;;
60582;SDS011;46415;47.536;19.066;2023-03-03T22:50:44;15.75;;;7.32;;
60582;SDS011;46415;47.536;19.066;2023-03-03T22:53:48;15.48;;;8.52;;
60582;SDS011;46415;47.536;19.066;2023-03-03T22:56:51;10.07;;;7.20;;
60582;SDS011;46415;47.536;19.066;2023-03-03T22:59:54;18.25;;;8.27;;
60582;SDS011;46415;47.536;19.066;2023-03-03T23:02:56;13.15;;;7.80;;
60582;SDS011;46415;47.536;19.066;2023-03-03T23:06:00;16.50;;;9.65;;
60582;SDS011;46415;47.536;19.066;2023-03-03T23:09:03;13.65;;;8.27;;
60582;SDS011;46415;47.536;19.066;2023-03-03T23:12:06;13.80;;;8.77;;
60582;SDS011;46415;47.536;19.066;2023-03-03T23:15:09;13.52;;;7.43;;
60582;SDS011;46415;47.536;19.066;2023-03-03T23:18:15;19.58;;;8.27;;
60582;SDS011;46415;47.536;19.066;2023-03-03T23:21:18;9.10;;;5.93;;
60582;SDS011;46415;47.536;19.066;2023-03-03T23:24:21;20.48;;;9.52;;
60582;SDS011;46415;47.536;19.066;2023-03-03T23:27:23;19.45;;;7.40;;
60582;SDS011;46415;47.536;19.066;2023-03-03T23:30:26;19.08;;;7.32;;
60582;SDS011;46415;47.536;19.066;2023-03-03T23:33:29;16.20;;;6.80;;
60582;SDS011;46415;47.536;19.066;2023-03-03T23:36:32;15.20;;;7.45;;
60582;SDS011;46415;47.536;19.066;2023-03-03T23:39:35;15.88;;;8.45;;
60582;SDS011;46415;47.536;19.066;2023-03-03T23:42:38;13.93;;;8.23;;
60582;SDS011;46415;47.536;19.066;2023-03-03T23:45:41;13.48;;;5.80;;
60582;SDS011;46415;47.536;19.066;2023-03-03T23:48:44;16.08;;;7.50;;
60582;SDS011;46415;47.536;19.066;2023-03-03T23:51:46;12.55;;;6.85;;
60582;SDS011;46415;47.536;19.066;2023-03-03T23:54:49;15.23;;;7.05;;
60582;SDS011;46415;47.536;19.066;2023-03-03T23:57:52;11.35;;;6.60;;
